createdAt,value
2023-09-12T00:00:32.471Z,-36.4
2023-09-12T00:01:32.479Z,-36.4
2023-09-12T00:02:32.487Z,-36.3
2023-09-12T00:03:32.561Z,-36.3
2023-09-12T00:04:32.530Z,-36.2
2023-09-12T00:05:32.479Z,-36.1
2023-09-12T00:06:32.516Z,-36.1
2023-09-12T00:07:32.443Z,-36
2023-09-12T00:08:32.475Z,-35.9
2023-09-12T00:09:32.552Z,-35.9
2023-09-12T00:10:32.524Z,-35.8
2023-09-12T00:11:32.483Z,-35.7
2023-09-12T00:12:32.511Z,-35.7
2023-09-12T00:13:32.528Z,-35.6
2023-09-12T00:14:32.484Z,-35.5
2023-09-12T00:15:32.560Z,-35.4
2023-09-12T00:16:32.532Z,-35.4
2023-09-12T00:17:32.546Z,-35.3
2023-09-12T00:18:32.540Z,-35.2
2023-09-12T00:19:32.542Z,-35.1
2023-09-12T00:20:32.538Z,-35.1
2023-09-12T00:21:32.561Z,-35
2023-09-12T00:22:32.516Z,-34.9
2023-09-12T00:23:32.534Z,-34.8
2023-09-12T00:24:32.619Z,-34.7
2023-09-12T00:25:32.536Z,-34.7
2023-09-12T00:26:32.535Z,-34.6
2023-09-12T00:27:32.582Z,-34.5
2023-09-12T00:28:32.532Z,-34.4
2023-09-12T00:29:32.557Z,-34.3
2023-09-12T00:30:32.589Z,-34.2
2023-09-12T00:31:32.590Z,-34.2
2023-09-12T00:32:32.575Z,-34.1
2023-09-12T00:33:32.699Z,-34
2023-09-12T00:34:32.564Z,-33.9
2023-09-12T00:35:32.609Z,-33.8
2023-09-12T00:36:32.639Z,-33.7
2023-09-12T00:37:32.588Z,-33.6
2023-09-12T00:38:32.609Z,-33.5
2023-09-12T00:39:32.653Z,-33.4
2023-09-12T00:40:32.637Z,-33.4
2023-09-12T00:41:32.562Z,-33.3
2023-09-12T00:42:32.631Z,-33.2
2023-09-12T00:43:32.606Z,-33.1
2023-09-12T00:44:32.547Z,-33
2023-09-12T00:45:32.822Z,-32.9
2023-09-12T00:46:32.618Z,-32.8
2023-09-12T00:47:32.683Z,-32.7
2023-09-12T00:48:32.688Z,-32.6
2023-09-12T00:49:32.625Z,-32.5
2023-09-12T00:50:32.701Z,-32.4
2023-09-12T00:51:32.668Z,-32.3
2023-09-12T00:52:32.653Z,-32.2
2023-09-12T00:53:32.603Z,-32.1
2023-09-12T00:54:32.683Z,-32
2023-09-12T00:55:32.665Z,-31.9
2023-09-12T00:56:32.651Z,-31.8
2023-09-12T00:57:32.694Z,-31.7
2023-09-12T00:58:32.621Z,-31.6
2023-09-12T00:59:32.684Z,-31.5
2023-09-12T01:00:32.746Z,-31.4
2023-09-12T01:01:32.739Z,-31.3
2023-09-12T01:02:32.772Z,-31.2
2023-09-12T01:03:32.756Z,-31.1
2023-09-12T01:04:35.334Z,-31
2023-09-12T01:05:32.715Z,-30.8
2023-09-12T01:06:32.711Z,-30.7
2023-09-12T01:07:32.665Z,-30.6
2023-09-12T01:08:32.732Z,-30.5
2023-09-12T01:09:32.809Z,-30.4
2023-09-12T01:10:32.731Z,-30.3
2023-09-12T01:11:32.713Z,-30.2
2023-09-12T01:12:32.879Z,-30.1
2023-09-12T01:13:32.733Z,-30
2023-09-12T01:14:32.706Z,-29.8
2023-09-12T01:15:32.746Z,-29.7
2023-09-12T01:16:32.782Z,-29.6
2023-09-12T01:17:32.759Z,-29.5
2023-09-12T01:18:32.853Z,-29.4
2023-09-12T01:19:32.752Z,-29.3
2023-09-12T01:20:32.760Z,-29.2
2023-09-12T01:21:32.789Z,-29
2023-09-12T01:22:32.749Z,-28.9
2023-09-12T01:23:32.771Z,-28.8
2023-09-12T01:24:32.883Z,-28.7
2023-09-12T01:25:32.753Z,-28.6
2023-09-12T01:26:32.777Z,-28.4
2023-09-12T01:27:32.798Z,-28.3
2023-09-12T01:28:32.750Z,-28.2
2023-09-12T01:29:32.789Z,-28.1
2023-09-12T01:30:32.888Z,-28
2023-09-12T01:31:32.836Z,-27.8
2023-09-12T01:32:32.843Z,-27.7
2023-09-12T01:33:32.894Z,-27.6
2023-09-12T01:34:32.819Z,-27.5
2023-09-12T01:35:32.853Z,-27.3
2023-09-12T01:36:33.139Z,-27.2
2023-09-12T01:37:32.836Z,-27.1
2023-09-12T01:38:32.834Z,-27
2023-09-12T01:39:32.878Z,-26.8
2023-09-12T01:40:32.820Z,-26.7
2023-09-12T01:41:32.870Z,-26.6
2023-09-12T01:42:32.862Z,-26.5
2023-09-12T01:43:32.867Z,-26.3
2023-09-12T01:44:32.877Z,-26.2
2023-09-12T01:45:32.923Z,-26.1
2023-09-12T01:46:32.907Z,-25.9
2023-09-12T01:47:32.894Z,-25.8
2023-09-12T01:48:32.962Z,-25.7
2023-09-12T01:49:32.848Z,-25.5
2023-09-12T01:50:32.864Z,-25.4
2023-09-12T01:51:32.988Z,-25.3
2023-09-12T01:52:32.921Z,-25.1
2023-09-12T01:53:32.895Z,-25
2023-09-12T01:54:32.906Z,-24.9
2023-09-12T01:55:32.939Z,-24.7
2023-09-12T01:56:32.916Z,-24.6
2023-09-12T01:57:32.956Z,-24.5
2023-09-12T01:58:32.895Z,-24.3
2023-09-12T01:59:32.920Z,-24.2
2023-09-12T02:00:32.965Z,-24.1
2023-09-12T02:01:32.965Z,-23.9
2023-09-12T02:02:32.917Z,-23.8
2023-09-12T02:03:33.044Z,-23.7
2023-09-12T02:04:32.944Z,-23.5
2023-09-12T02:05:32.975Z,-23.4
2023-09-12T02:06:33.015Z,-23.3
2023-09-12T02:07:32.954Z,-23.1
2023-09-12T02:08:32.913Z,-23
2023-09-12T02:09:33.007Z,-22.8
2023-09-12T02:10:32.994Z,-22.7
2023-09-12T02:11:32.982Z,-22.6
2023-09-12T02:12:32.979Z,-22.4
2023-09-12T02:13:32.978Z,-22.3
2023-09-12T02:14:32.986Z,-22.1
2023-09-12T02:15:33.145Z,-22
2023-09-12T02:16:33.130Z,-21.8
2023-09-12T02:17:33.245Z,-21.7
2023-09-12T02:18:33.035Z,-21.6
2023-09-12T02:19:33.032Z,-21.4
2023-09-12T02:20:33.066Z,-21.3
2023-09-12T02:21:33.034Z,-21.1
2023-09-12T02:22:33.047Z,-21
2023-09-12T02:23:33.007Z,-20.8
2023-09-12T02:24:33.085Z,-20.7
2023-09-12T02:25:33.020Z,-20.6
2023-09-12T02:26:33.030Z,-20.4
2023-09-12T02:27:33.053Z,-20.3
2023-09-12T02:28:33.039Z,-20.1
2023-09-12T02:29:33.030Z,-20
2023-09-12T02:30:33.064Z,-19.8
2023-09-12T02:31:33.065Z,-19.7
2023-09-12T02:32:33.067Z,-19.5
2023-09-12T02:33:33.148Z,-19.4
2023-09-12T02:34:33.043Z,-19.2
2023-09-12T02:35:33.108Z,-19.1
2023-09-12T02:36:33.089Z,-18.9
2023-09-12T02:37:33.125Z,-18.8
2023-09-12T02:38:33.127Z,-18.6
2023-09-12T02:39:33.139Z,-18.5
2023-09-12T02:40:33.105Z,-18.3
2023-09-12T02:41:33.093Z,-18.2
2023-09-12T02:42:33.175Z,-18
2023-09-12T02:43:33.100Z,-17.9
2023-09-12T02:44:33.113Z,-17.7
2023-09-12T02:45:33.179Z,-17.6
2023-09-12T02:46:33.120Z,-17.4
2023-09-12T02:47:33.143Z,-17.3
2023-09-12T02:48:33.176Z,-17.1
2023-09-12T02:49:33.136Z,-17
2023-09-12T02:50:33.119Z,-16.8
2023-09-12T02:51:33.191Z,-16.7
2023-09-12T02:52:33.152Z,-16.5
2023-09-12T02:53:33.099Z,-16.4
2023-09-12T02:54:33.189Z,-16.2
2023-09-12T02:55:33.166Z,-16.1
2023-09-12T02:56:33.148Z,-15.9
2023-09-12T02:57:33.227Z,-15.7
2023-09-12T02:58:33.108Z,-15.6
2023-09-12T02:59:33.181Z,-15.4
2023-09-12T03:00:33.218Z,-15.3
2023-09-12T03:01:33.337Z,-15.1
2023-09-12T03:02:33.270Z,-15
2023-09-12T03:03:33.310Z,-14.8
2023-09-12T03:04:33.209Z,-14.7
2023-09-12T03:05:33.201Z,-14.5
2023-09-12T03:06:33.175Z,-14.3
2023-09-12T03:07:33.214Z,-14.2
2023-09-12T03:08:33.224Z,-14
2023-09-12T03:09:33.228Z,-13.9
2023-09-12T03:10:33.257Z,-13.7
2023-09-12T03:11:33.207Z,-13.6
2023-09-12T03:12:33.290Z,-13.4
2023-09-12T03:13:33.245Z,-13.2
2023-09-12T03:14:33.236Z,-13.1
2023-09-12T03:15:33.359Z,-12.9
2023-09-12T03:16:33.310Z,-12.8
2023-09-12T03:17:33.303Z,-12.6
2023-09-12T03:18:33.279Z,-12.4
2023-09-12T03:19:33.245Z,-12.3
2023-09-12T03:20:33.314Z,-12.1
2023-09-12T03:21:33.288Z,-12
2023-09-12T03:22:33.280Z,-11.8
2023-09-12T03:23:33.275Z,-11.6
2023-09-12T03:24:33.331Z,-11.5
2023-09-12T03:25:33.256Z,-11.3
2023-09-12T03:26:33.252Z,-11.2
2023-09-12T03:27:33.286Z,-11
2023-09-12T03:28:33.313Z,-10.8
2023-09-12T03:29:33.310Z,-10.7
2023-09-12T03:30:33.330Z,-10.5
2023-09-12T03:31:33.342Z,-10.4
2023-09-12T03:32:33.294Z,-10.2
2023-09-12T03:33:33.423Z,-10
2023-09-12T03:34:33.336Z,-9.9
2023-09-12T03:35:33.359Z,-9.7
2023-09-12T03:36:33.401Z,-9.5
2023-09-12T03:37:33.375Z,-9.4
2023-09-12T03:38:33.317Z,-9.2
2023-09-12T03:39:33.366Z,-9.1
2023-09-12T03:40:33.383Z,-8.9
2023-09-12T03:41:33.355Z,-8.7
2023-09-12T03:42:42.293Z,-8.6
2023-09-12T03:43:33.357Z,-8.4
2023-09-12T03:44:33.336Z,-8.2
2023-09-12T03:45:33.400Z,-8.1
2023-09-12T03:46:33.377Z,-7.9
2023-09-12T03:47:33.381Z,-7.7
2023-09-12T03:48:33.450Z,-7.6
2023-09-12T03:49:33.400Z,-7.4
2023-09-12T03:50:33.406Z,-7.2
2023-09-12T03:51:33.423Z,-7.1
2023-09-12T03:52:33.406Z,-6.9
2023-09-12T03:53:33.356Z,-6.7
2023-09-12T03:54:33.371Z,-6.6
2023-09-12T03:55:33.410Z,-6.4
2023-09-12T03:56:33.344Z,-6.3
2023-09-12T03:57:33.418Z,-6.1
2023-09-12T03:58:33.420Z,-5.9
2023-09-12T03:59:33.424Z,-5.8
2023-09-12T04:00:33.490Z,-5.6
2023-09-12T04:01:33.502Z,-5.4
2023-09-12T04:02:33.424Z,-5.3
2023-09-12T04:03:33.556Z,-5.1
2023-09-12T04:04:33.555Z,-4.9
2023-09-12T04:05:33.507Z,-4.8
2023-09-12T04:06:33.497Z,-4.6
2023-09-12T04:07:33.452Z,-4.4
2023-09-12T04:08:33.467Z,-4.3
2023-09-12T04:09:33.478Z,-4.1
2023-09-12T04:10:33.457Z,-3.9
2023-09-12T04:11:45.560Z,-3.8
2023-09-12T04:12:33.552Z,-3.6
2023-09-12T04:13:33.486Z,-3.4
2023-09-12T04:14:33.467Z,-3.2
2023-09-12T04:15:33.536Z,-3.1
2023-09-12T04:16:33.505Z,-2.9
2023-09-12T04:17:33.548Z,-2.7
2023-09-12T04:18:33.586Z,-2.6
2023-09-12T04:19:33.520Z,-2.4
2023-09-12T04:20:33.537Z,-2.2
2023-09-12T04:21:33.548Z,-2.1
2023-09-12T04:22:33.493Z,-1.9
2023-09-12T04:23:33.488Z,-1.7
2023-09-12T04:24:33.589Z,-1.6
2023-09-12T04:25:33.551Z,-1.4
2023-09-12T04:26:33.498Z,-1.2
2023-09-12T04:27:33.529Z,-1.1
2023-09-12T04:28:33.552Z,-0.9
2023-09-12T04:29:33.534Z,-0.7
2023-09-12T04:30:33.599Z,-0.6
2023-09-12T04:31:33.612Z,-0.4
2023-09-12T04:32:33.595Z,-0.2
2023-09-12T04:33:33.611Z,0
2023-09-12T04:34:33.526Z,0
2023-09-12T04:35:33.596Z,0.2
2023-09-12T04:36:33.614Z,0.4
2023-09-12T04:37:33.539Z,0.5
2023-09-12T04:38:33.577Z,0.7
2023-09-12T04:39:33.609Z,0.9
2023-09-12T04:40:33.578Z,1
2023-09-12T04:41:33.594Z,1.2
2023-09-12T04:42:33.635Z,1.4
2023-09-12T04:43:33.625Z,1.6
2023-09-12T04:44:33.581Z,1.7
2023-09-12T04:45:33.638Z,1.9
2023-09-12T04:46:33.629Z,2.1
2023-09-12T04:47:33.650Z,2.2
2023-09-12T04:48:33.683Z,2.4
2023-09-12T04:49:33.641Z,2.6
2023-09-12T04:50:33.651Z,2.7
2023-09-12T04:51:33.658Z,2.9
2023-09-12T04:52:34.392Z,3.1
2023-09-12T04:53:33.597Z,3.3
2023-09-12T04:54:33.669Z,3.4
2023-09-12T04:55:33.699Z,3.6
2023-09-12T04:56:33.617Z,3.8
2023-09-12T04:57:33.686Z,3.9
2023-09-12T04:58:33.661Z,4.1
2023-09-12T04:59:33.644Z,4.3
2023-09-12T05:00:33.744Z,4.4
2023-09-12T05:01:33.782Z,4.6
2023-09-12T05:02:33.711Z,4.8
2023-09-12T05:03:33.726Z,5
2023-09-12T05:04:33.711Z,5.1
2023-09-12T05:05:33.733Z,5.3
2023-09-12T05:06:33.768Z,5.5
2023-09-12T05:07:33.676Z,5.6
2023-09-12T05:08:33.701Z,5.8
2023-09-12T05:09:33.754Z,6
2023-09-12T05:10:33.704Z,6.1
2023-09-12T05:11:33.705Z,6.3
2023-09-12T05:12:33.791Z,6.5
2023-09-12T05:13:33.738Z,6.7
2023-09-12T05:14:33.726Z,6.8
2023-09-12T05:15:33.757Z,7
2023-09-12T05:16:33.750Z,7.2
2023-09-12T05:17:33.749Z,7.3
2023-09-12T05:18:33.782Z,7.5
2023-09-12T05:19:33.752Z,7.7
2023-09-12T05:20:33.762Z,7.8
2023-09-12T05:21:33.793Z,8
2023-09-12T05:22:33.770Z,8.2
2023-09-12T05:23:33.723Z,8.4
2023-09-12T05:24:33.837Z,8.5
2023-09-12T05:25:33.805Z,8.7
2023-09-12T05:26:33.784Z,8.9
2023-09-12T05:27:33.831Z,9
2023-09-12T05:28:33.760Z,9.2
2023-09-12T05:29:33.810Z,9.4
2023-09-12T05:30:33.845Z,9.5
2023-09-12T05:31:33.873Z,9.7
2023-09-12T05:32:33.879Z,9.9
2023-09-12T05:33:34.210Z,10.1
2023-09-12T05:34:33.793Z,10.2
2023-09-12T05:35:33.823Z,10.4
2023-09-12T05:36:33.854Z,10.6
2023-09-12T05:37:33.813Z,10.7
2023-09-12T05:38:33.826Z,10.9
2023-09-12T05:39:33.839Z,11.1
2023-09-12T05:40:33.843Z,11.2
2023-09-12T05:41:33.828Z,11.4
2023-09-12T05:42:33.874Z,11.6
2023-09-12T05:43:33.871Z,11.8
2023-09-12T05:44:34.138Z,11.9
2023-09-12T05:45:34.107Z,12.1
2023-09-12T05:46:33.883Z,12.3
2023-09-12T05:47:33.919Z,12.4
2023-09-12T05:48:33.892Z,12.6
2023-09-12T05:49:33.888Z,12.8
2023-09-12T05:50:33.871Z,12.9
2023-09-12T05:51:33.954Z,13.1
2023-09-12T05:52:33.886Z,13.3
2023-09-12T05:53:33.857Z,13.4
2023-09-12T05:54:33.943Z,13.6
2023-09-12T05:55:33.957Z,13.8
2023-09-12T05:56:33.914Z,13.9
2023-09-12T05:57:33.942Z,14.1
2023-09-12T05:58:33.916Z,14.3
2023-09-12T05:59:33.937Z,14.5
2023-09-12T06:00:34.012Z,14.6
2023-09-12T06:01:33.956Z,14.8
2023-09-12T06:02:33.941Z,15
2023-09-12T06:03:34.052Z,15.1
2023-09-12T06:04:34.091Z,15.3
2023-09-12T06:05:33.981Z,15.5
2023-09-12T06:06:33.986Z,15.6
2023-09-12T06:07:33.920Z,15.8
2023-09-12T06:08:33.960Z,16
2023-09-12T06:09:33.950Z,16.1
2023-09-12T06:10:34.024Z,16.3
2023-09-12T06:11:33.981Z,16.5
2023-09-12T06:12:34.076Z,16.6
2023-09-12T06:13:33.990Z,16.8
2023-09-12T06:14:33.959Z,17
2023-09-12T06:15:34.050Z,17.1
2023-09-12T06:16:34.012Z,17.3
2023-09-12T06:17:34.120Z,17.5
2023-09-12T06:18:34.048Z,17.6
2023-09-12T06:19:34.026Z,17.8
2023-09-12T06:20:34.002Z,18
2023-09-12T06:21:34.078Z,18.1
2023-09-12T06:22:33.986Z,18.3
2023-09-12T06:23:34.033Z,18.5
2023-09-12T06:24:34.079Z,18.6
2023-09-12T06:25:34.060Z,18.8
2023-09-12T06:26:34.031Z,19
2023-09-12T06:27:34.100Z,19.1
2023-09-12T06:28:34.033Z,19.3
2023-09-12T06:29:34.065Z,19.4
2023-09-12T06:30:34.112Z,19.6
2023-09-12T06:31:34.100Z,19.8
2023-09-12T06:32:34.118Z,19.9
2023-09-12T06:33:34.120Z,20.1
2023-09-12T06:34:34.056Z,20.3
2023-09-12T06:35:34.113Z,20.4
2023-09-12T06:36:34.087Z,20.6
2023-09-12T06:37:34.095Z,20.8
2023-09-12T06:38:34.097Z,20.9
2023-09-12T06:39:34.103Z,21.1
2023-09-12T06:40:34.092Z,21.2
2023-09-12T06:41:34.080Z,21.4
2023-09-12T06:42:34.164Z,21.6
2023-09-12T06:43:34.086Z,21.7
2023-09-12T06:44:34.123Z,21.9
2023-09-12T06:45:34.164Z,22.1
2023-09-12T06:46:34.188Z,22.2
2023-09-12T06:47:34.174Z,22.4
2023-09-12T06:48:34.170Z,22.5
2023-09-12T06:49:35.553Z,22.7
2023-09-12T06:50:35.338Z,22.9
2023-09-12T06:51:38.384Z,23
2023-09-12T06:52:34.137Z,23.2
2023-09-12T06:53:34.162Z,23.3
2023-09-12T06:54:34.209Z,23.5
2023-09-12T06:55:34.161Z,23.7
2023-09-12T06:56:34.171Z,23.8
2023-09-12T06:57:34.219Z,24
2023-09-12T06:58:34.143Z,24.1
2023-09-12T06:59:34.160Z,24.3
2023-09-12T07:00:34.307Z,24.5
2023-09-12T07:01:34.232Z,24.6
2023-09-12T07:02:34.241Z,24.8
2023-09-12T07:03:34.253Z,24.9
2023-09-12T07:04:34.220Z,25.1
2023-09-12T07:05:34.257Z,25.2
2023-09-12T07:06:34.342Z,25.4
2023-09-12T07:07:34.209Z,25.6
2023-09-12T07:08:34.217Z,25.7
2023-09-12T07:09:34.269Z,25.9
2023-09-12T07:10:34.247Z,26
2023-09-12T07:11:34.212Z,26.2
2023-09-12T07:12:34.247Z,26.3
2023-09-12T07:13:34.173Z,26.5
2023-09-12T07:14:34.207Z,26.6
2023-09-12T07:15:34.315Z,26.8
2023-09-12T07:16:34.289Z,27
2023-09-12T07:17:34.256Z,27.1
2023-09-12T07:18:34.293Z,27.3
2023-09-12T07:19:34.270Z,27.4
2023-09-12T07:20:34.288Z,27.6
2023-09-12T07:21:34.278Z,27.7
2023-09-12T07:22:34.274Z,27.9
2023-09-12T07:23:34.269Z,28
2023-09-12T07:24:34.290Z,28.2
2023-09-12T07:25:34.282Z,28.3
2023-09-12T07:26:34.284Z,28.5
2023-09-12T07:27:34.348Z,28.6
2023-09-12T07:28:34.287Z,28.8
2023-09-12T07:29:34.288Z,28.9
2023-09-12T07:30:34.407Z,29.1
2023-09-12T07:31:34.352Z,29.2
2023-09-12T07:32:34.305Z,29.4
2023-09-12T07:33:34.385Z,29.5
2023-09-12T07:34:34.279Z,29.7
2023-09-12T07:35:34.318Z,29.8
2023-09-12T07:36:34.362Z,30
2023-09-12T07:37:34.334Z,30.1
2023-09-12T07:38:34.324Z,30.3
2023-09-12T07:39:34.352Z,30.4
2023-09-12T07:40:34.400Z,30.6
2023-09-12T07:41:34.337Z,30.7
2023-09-12T07:42:34.349Z,30.9
2023-09-12T07:43:34.343Z,31
2023-09-12T07:44:34.374Z,31.2
2023-09-12T07:45:36.053Z,31.3
2023-09-12T07:46:34.394Z,31.4
2023-09-12T07:47:34.371Z,31.6
2023-09-12T07:48:34.429Z,31.7
2023-09-12T07:49:34.376Z,31.9
2023-09-12T07:50:34.391Z,32
2023-09-12T07:51:34.415Z,32.2
2023-09-12T07:52:34.393Z,32.3
2023-09-12T07:53:34.378Z,32.4
2023-09-12T07:54:34.406Z,32.6
2023-09-12T07:55:34.415Z,32.7
2023-09-12T07:56:34.398Z,32.9
2023-09-12T07:57:34.464Z,33
2023-09-12T07:58:34.448Z,33.1
2023-09-12T07:59:34.379Z,33.3
2023-09-12T08:00:34.487Z,33.4
2023-09-12T08:01:34.489Z,33.6
2023-09-12T08:02:34.433Z,33.7
2023-09-12T08:03:34.545Z,33.8
2023-09-12T08:04:34.599Z,34
2023-09-12T08:05:34.486Z,34.1
2023-09-12T08:06:47.748Z,34.2
2023-09-12T08:07:34.442Z,34.4
2023-09-12T08:08:34.488Z,34.5
2023-09-12T08:09:34.505Z,34.7
2023-09-12T08:10:34.461Z,34.8
2023-09-12T08:11:34.466Z,34.9
2023-09-12T08:12:34.524Z,35.1
2023-09-12T08:13:34.505Z,35.2
2023-09-12T08:14:34.490Z,35.3
2023-09-12T08:15:34.571Z,35.5
2023-09-12T08:16:34.532Z,35.6
2023-09-12T08:17:34.523Z,35.7
2023-09-12T08:18:34.471Z,35.8
2023-09-12T08:19:34.480Z,36
2023-09-12T08:20:34.523Z,36.1
2023-09-12T08:21:34.540Z,36.2
2023-09-12T08:22:34.532Z,36.4
2023-09-12T08:23:34.496Z,36.5
2023-09-12T08:24:34.562Z,36.6
2023-09-12T08:25:34.547Z,36.7
2023-09-12T08:26:34.531Z,36.9
2023-09-12T08:27:34.563Z,37
2023-09-12T08:28:34.549Z,37.1
2023-09-12T08:29:34.523Z,37.3
2023-09-12T08:30:34.603Z,37.4
2023-09-12T08:31:34.566Z,37.5
2023-09-12T08:32:34.555Z,37.6
2023-09-12T08:33:34.642Z,37.7
2023-09-12T08:34:34.553Z,37.9
2023-09-12T08:35:34.593Z,38
2023-09-12T08:36:34.651Z,38.1
2023-09-12T08:37:34.586Z,38.2
2023-09-12T08:38:34.591Z,38.3
2023-09-12T08:39:34.589Z,38.5
2023-09-12T08:40:34.571Z,38.6
2023-09-12T08:41:34.587Z,38.7
2023-09-12T08:42:34.591Z,38.8
2023-09-12T08:43:34.572Z,38.9
2023-09-12T08:44:34.614Z,39.1
2023-09-12T08:45:34.716Z,39.2
2023-09-12T08:46:34.607Z,39.3
2023-09-12T08:47:34.636Z,39.4
2023-09-12T08:48:34.685Z,39.5
2023-09-12T08:49:34.619Z,39.6
2023-09-12T08:50:34.666Z,39.7
2023-09-12T08:51:34.716Z,39.9
2023-09-12T08:52:34.558Z,40
2023-09-12T08:53:34.615Z,40.1
2023-09-12T08:54:34.759Z,40.2
2023-09-12T08:55:34.685Z,40.3
2023-09-12T08:56:34.663Z,40.4
2023-09-12T08:57:34.672Z,40.5
2023-09-12T08:58:34.617Z,40.6
2023-09-12T08:59:34.695Z,40.7
2023-09-12T09:00:34.739Z,40.8
2023-09-12T09:01:34.704Z,40.9
2023-09-12T09:02:34.695Z,41
2023-09-12T09:03:34.762Z,41.1
2023-09-12T09:04:34.684Z,41.2
2023-09-12T09:05:34.804Z,41.3
2023-09-12T09:06:34.756Z,41.4
2023-09-12T09:07:34.735Z,41.5
2023-09-12T09:08:34.697Z,41.6
2023-09-12T09:09:34.730Z,41.7
2023-09-12T09:11:34.718Z,41.9
2023-09-12T09:12:34.688Z,42
2023-09-12T09:13:34.717Z,42.1
2023-09-12T09:14:34.725Z,42.2
2023-09-12T09:15:34.794Z,42.3
2023-09-12T09:16:34.761Z,42.4
2023-09-12T09:17:36.304Z,42.5
2023-09-12T09:18:34.841Z,42.6
2023-09-12T09:19:34.763Z,42.7
2023-09-12T09:20:34.791Z,42.8
2023-09-12T09:21:34.793Z,42.9
2023-09-12T09:22:34.739Z,43
2023-09-12T09:23:34.726Z,43.1
2023-09-12T09:24:34.804Z,43.1
2023-09-12T09:25:34.768Z,43.2
2023-09-12T09:26:35.073Z,43.3
2023-09-12T09:27:34.803Z,43.4
2023-09-12T09:28:34.790Z,43.5
2023-09-12T09:29:34.797Z,43.6
2023-09-12T09:30:34.850Z,43.6
2023-09-12T09:31:34.826Z,43.7
2023-09-12T09:32:34.831Z,43.8
2023-09-12T09:33:34.869Z,43.9
2023-09-12T09:34:34.819Z,44
2023-09-12T09:35:34.837Z,44
2023-09-12T09:36:34.833Z,44.1
2023-09-12T09:37:34.824Z,44.2
2023-09-12T09:38:34.821Z,44.3
2023-09-12T09:39:34.897Z,44.3
2023-09-12T09:40:34.874Z,44.4
2023-09-12T09:41:34.868Z,44.5
2023-09-12T09:42:34.906Z,44.6
2023-09-12T09:43:34.844Z,44.6
2023-09-12T09:44:34.835Z,44.7
2023-09-12T09:45:34.956Z,44.8
2023-09-12T09:46:34.841Z,44.8
2023-09-12T09:47:34.891Z,44.9
2023-09-12T09:48:34.925Z,45
2023-09-12T09:49:34.884Z,45
2023-09-12T09:50:34.879Z,45.1
2023-09-12T09:51:34.876Z,45.2
2023-09-12T09:52:34.875Z,45.2
2023-09-12T09:53:34.899Z,45.3
2023-09-12T09:54:35.022Z,45.4
2023-09-12T09:55:34.910Z,45.4
2023-09-12T09:56:34.926Z,45.5
2023-09-12T09:57:34.951Z,45.5
2023-09-12T09:58:34.931Z,45.6
2023-09-12T09:59:34.909Z,45.6
2023-09-12T10:00:34.959Z,45.7
2023-09-12T10:01:34.927Z,45.8
2023-09-12T10:02:34.981Z,45.8
2023-09-12T10:03:35.022Z,45.9
2023-09-12T10:04:47.185Z,45.9
2023-09-12T10:05:34.962Z,46
2023-09-12T10:06:34.932Z,46
2023-09-12T10:07:34.940Z,46.1
2023-09-12T10:08:34.959Z,46.1
2023-09-12T10:09:34.998Z,46.2
2023-09-12T10:10:34.982Z,46.2
2023-09-12T10:11:34.940Z,46.2
2023-09-12T10:12:35.000Z,46.3
2023-09-12T10:13:34.976Z,46.3
2023-09-12T10:14:34.994Z,46.4
2023-09-12T10:15:35.027Z,46.4
2023-09-12T10:16:35.015Z,46.4
2023-09-12T10:17:34.997Z,46.5
2023-09-12T10:18:35.100Z,46.5
2023-09-12T10:19:35.011Z,46.6
2023-09-12T10:20:35.020Z,46.6
2023-09-12T10:21:35.119Z,46.6
2023-09-12T10:22:35.086Z,46.7
2023-09-12T10:23:34.985Z,46.7
2023-09-12T10:24:35.065Z,46.7
2023-09-12T10:25:35.044Z,46.7
2023-09-12T10:26:35.007Z,46.8
2023-09-12T10:27:35.073Z,46.8
2023-09-12T10:28:35.063Z,46.8
2023-09-12T10:29:35.064Z,46.9
2023-09-12T10:30:35.072Z,46.9
2023-09-12T10:31:35.117Z,46.9
2023-09-12T10:32:35.083Z,46.9
2023-09-12T10:33:35.150Z,46.9
2023-09-12T10:34:34.989Z,47
2023-09-12T10:35:35.083Z,47
2023-09-12T10:36:35.079Z,47
2023-09-12T10:37:35.073Z,47
2023-09-12T10:38:35.024Z,47
2023-09-12T10:39:35.101Z,47
2023-09-12T10:40:35.616Z,47.1
2023-09-12T10:41:35.028Z,47.1
2023-09-12T10:42:35.100Z,47.1
2023-09-12T10:43:35.111Z,47.1
2023-09-12T10:44:35.116Z,47.1
2023-09-12T10:45:35.147Z,47.1
2023-09-12T10:46:35.238Z,47.1
2023-09-12T10:47:35.089Z,47.1
2023-09-12T10:48:35.175Z,47.1
2023-09-12T10:49:35.124Z,47.1
2023-09-12T10:50:35.104Z,47.1
2023-09-12T10:51:35.162Z,47.1
2023-09-12T10:52:35.152Z,47.1
2023-09-12T10:53:35.162Z,47.1
2023-09-12T10:54:35.165Z,47.1
2023-09-12T10:55:35.171Z,47.1
2023-09-12T10:56:35.175Z,47.1
2023-09-12T10:57:35.201Z,47.1
2023-09-12T10:58:35.160Z,47.1
2023-09-12T10:59:35.182Z,47.1
2023-09-12T11:00:35.323Z,47.1
2023-09-12T11:01:35.257Z,47.1
2023-09-12T11:02:35.211Z,47.1
2023-09-12T11:03:35.307Z,47.1
2023-09-12T11:04:35.263Z,47
2023-09-12T11:05:35.203Z,47
2023-09-12T11:06:35.192Z,47
2023-09-12T11:07:35.196Z,47
2023-09-12T11:08:35.213Z,47
2023-09-12T11:09:35.208Z,47
2023-09-12T11:10:35.205Z,46.9
2023-09-12T11:11:35.209Z,46.9
2023-09-12T11:12:35.256Z,46.9
2023-09-12T11:13:35.201Z,46.9
2023-09-12T11:14:35.258Z,46.9
2023-09-12T11:15:35.273Z,46.8
2023-09-12T11:16:35.267Z,46.8
2023-09-12T11:17:35.247Z,46.8
2023-09-12T11:18:35.286Z,46.8
2023-09-12T11:19:35.250Z,46.7
2023-09-12T11:20:35.273Z,46.7
2023-09-12T11:21:35.323Z,46.7
2023-09-12T11:22:35.214Z,46.6
2023-09-12T11:23:35.256Z,46.6
2023-09-12T11:24:35.322Z,46.6
2023-09-12T11:25:35.298Z,46.5
2023-09-12T11:26:35.297Z,46.5
2023-09-12T11:27:35.359Z,46.5
2023-09-12T11:28:35.287Z,46.4
2023-09-12T11:29:35.283Z,46.4
2023-09-12T11:30:35.377Z,46.3
2023-09-12T11:31:35.341Z,46.3
2023-09-12T11:32:35.404Z,46.3
2023-09-12T11:33:35.446Z,46.2
2023-09-12T11:34:35.269Z,46.2
2023-09-12T11:35:35.324Z,46.1
2023-09-12T11:36:35.339Z,46.1
2023-09-12T11:37:35.264Z,46
2023-09-12T11:38:35.339Z,46
2023-09-12T11:39:35.398Z,45.9
2023-09-12T11:40:35.328Z,45.9
2023-09-12T11:41:35.338Z,45.8
2023-09-12T11:42:35.409Z,45.8
2023-09-12T11:43:35.354Z,45.7
2023-09-12T11:44:35.343Z,45.7
2023-09-12T11:45:35.396Z,45.6
2023-09-12T11:46:35.528Z,45.5
2023-09-12T11:47:35.398Z,45.5
2023-09-12T11:48:35.466Z,45.4
2023-09-12T11:49:35.425Z,45.4
2023-09-12T11:50:35.441Z,45.3
2023-09-12T11:51:35.408Z,45.3
2023-09-12T11:52:35.392Z,45.2
2023-09-12T11:53:35.361Z,45.1
2023-09-12T11:54:35.399Z,45.1
2023-09-12T11:55:35.412Z,45
2023-09-12T11:56:35.406Z,44.9
2023-09-12T11:57:35.486Z,44.9
2023-09-12T11:58:35.434Z,44.8
2023-09-12T11:59:35.409Z,44.7
2023-09-12T12:00:35.463Z,44.7
2023-09-12T12:01:35.442Z,44.6
2023-09-12T12:02:35.414Z,44.5
2023-09-12T12:03:35.569Z,44.4
2023-09-12T12:04:35.592Z,44.4
2023-09-12T12:05:35.466Z,44.3
2023-09-12T12:06:35.460Z,44.2
2023-09-12T12:07:35.435Z,44.1
2023-09-12T12:08:35.449Z,44.1
2023-09-12T12:09:35.447Z,44
2023-09-12T12:10:35.495Z,43.9
2023-09-12T12:11:35.466Z,43.8
2023-09-12T12:12:35.469Z,43.7
2023-09-12T12:13:35.441Z,43.7
2023-09-12T12:14:35.458Z,43.6
2023-09-12T12:15:35.627Z,43.5
2023-09-12T12:16:35.535Z,43.4
2023-09-12T12:17:35.479Z,43.3
2023-09-12T12:18:35.496Z,43.2
2023-09-12T12:19:35.501Z,43.2
2023-09-12T12:20:35.525Z,43.1
2023-09-12T12:21:37.632Z,43
2023-09-12T12:22:35.488Z,42.9
2023-09-12T12:23:35.479Z,42.8
2023-09-12T12:24:35.510Z,42.7
2023-09-12T12:25:35.524Z,42.6
2023-09-12T12:26:35.519Z,42.5
2023-09-12T12:27:35.544Z,42.4
2023-09-12T12:28:35.537Z,42.3
2023-09-12T12:29:35.506Z,42.2
2023-09-12T12:30:35.663Z,42.2
2023-09-12T12:31:35.600Z,42.1
2023-09-12T12:32:35.563Z,42
2023-09-12T12:34:03.950Z,41.9
2023-09-12T12:35:08.959Z,41.8
2023-09-12T12:35:46.523Z,41.7
2023-09-12T12:36:40.720Z,41.6
2023-09-12T12:37:35.578Z,41.5
2023-09-12T12:38:36.246Z,41.4
2023-09-12T12:39:35.648Z,41.3
2023-09-12T12:40:43.780Z,41.2
